sensor_id;sensor_type;location;lat;lon;timestamp;P1;durP1;ratioP1;P2;durP2;ratioP2
12792;SDS011;6460;42.684;23.260;2023-09-08T00:02:26;8.93;;;6.70;;
12792;SDS011;6460;42.684;23.260;2023-09-08T00:04:54;8.20;;;6.87;;
12792;SDS011;6460;42.684;23.260;2023-09-08T00:07:23;7.93;;;7.20;;
12792;SDS011;6460;42.684;23.260;2023-09-08T00:09:50;11.97;;;7.57;;
12792;SDS011;6460;42.684;23.260;2023-09-08T00:12:18;10.93;;;7.57;;
12792;SDS011;6460;42.684;23.260;2023-09-08T00:14:45;8.63;;;7.73;;
12792;SDS011;6460;42.684;23.260;2023-09-08T00:17:12;8.50;;;7.60;;
12792;SDS011;6460;42.684;23.260;2023-09-08T00:19:39;9.03;;;8.13;;
12792;SDS011;6460;42.684;23.260;2023-09-08T00:22:07;10.77;;;7.83;;
12792;SDS011;6460;42.684;23.260;2023-09-08T00:24:36;8.70;;;7.73;;
12792;SDS011;6460;42.684;23.260;2023-09-08T00:27:04;9.20;;;8.07;;
12792;SDS011;6460;42.684;23.260;2023-09-08T00:29:31;7.70;;;6.90;;
12792;SDS011;6460;42.684;23.260;2023-09-08T00:31:58;8.77;;;6.57;;
12792;SDS011;6460;42.684;23.260;2023-09-08T00:34:26;8.17;;;6.97;;
12792;SDS011;6460;42.684;23.260;2023-09-08T00:36:53;8.53;;;6.33;;
12792;SDS011;6460;42.684;23.260;2023-09-08T00:39:20;8.47;;;6.43;;
12792;SDS011;6460;42.684;23.260;2023-09-08T00:41:50;6.87;;;5.67;;
12792;SDS011;6460;42.684;23.260;2023-09-08T00:44:17;6.70;;;5.93;;
12792;SDS011;6460;42.684;23.260;2023-09-08T00:46:44;6.90;;;5.63;;
12792;SDS011;6460;42.684;23.260;2023-09-08T00:49:12;7.60;;;5.70;;
12792;SDS011;6460;42.684;23.260;2023-09-08T00:51:39;6.70;;;6.10;;
12792;SDS011;6460;42.684;23.260;2023-09-08T00:54:06;6.07;;;5.30;;
12792;SDS011;6460;42.684;23.260;2023-09-08T00:56:35;5.33;;;4.77;;
12792;SDS011;6460;42.684;23.260;2023-09-08T00:59:06;5.70;;;4.97;;
12792;SDS011;6460;42.684;23.260;2023-09-08T01:01:34;5.90;;;5.03;;
12792;SDS011;6460;42.684;23.260;2023-09-08T01:04:02;7.07;;;5.03;;
12792;SDS011;6460;42.684;23.260;2023-09-08T01:06:29;5.70;;;5.07;;
12792;SDS011;6460;42.684;23.260;2023-09-08T01:08:58;5.80;;;5.10;;
12792;SDS011;6460;42.684;23.260;2023-09-08T01:11:26;5.83;;;4.53;;
12792;SDS011;6460;42.684;23.260;2023-09-08T01:13:55;5.97;;;5.07;;
12792;SDS011;6460;42.684;23.260;2023-09-08T01:16:24;7.03;;;4.70;;
12792;SDS011;6460;42.684;23.260;2023-09-08T01:18:52;5.90;;;4.70;;
12792;SDS011;6460;42.684;23.260;2023-09-08T01:21:34;5.43;;;4.90;;
12792;SDS011;6460;42.684;23.260;2023-09-08T01:24:24;5.60;;;4.30;;
12792;SDS011;6460;42.684;23.260;2023-09-08T01:27:05;5.60;;;4.47;;
12792;SDS011;6460;42.684;23.260;2023-09-08T01:29:33;6.93;;;4.67;;
12792;SDS011;6460;42.684;23.260;2023-09-08T01:32:02;6.77;;;4.10;;
12792;SDS011;6460;42.684;23.260;2023-09-08T01:34:30;4.40;;;4.00;;
12792;SDS011;6460;42.684;23.260;2023-09-08T01:36:58;5.67;;;4.20;;
12792;SDS011;6460;42.684;23.260;2023-09-08T01:39:29;5.47;;;4.20;;
12792;SDS011;6460;42.684;23.260;2023-09-08T01:41:56;5.33;;;4.37;;
12792;SDS011;6460;42.684;23.260;2023-09-08T01:44:25;6.40;;;4.80;;
12792;SDS011;6460;42.684;23.260;2023-09-08T01:46:53;5.60;;;4.00;;
12792;SDS011;6460;42.684;23.260;2023-09-08T01:49:22;5.13;;;4.43;;
12792;SDS011;6460;42.684;23.260;2023-09-08T01:51:49;5.50;;;4.70;;
12792;SDS011;6460;42.684;23.260;2023-09-08T01:54:16;5.97;;;4.30;;
12792;SDS011;6460;42.684;23.260;2023-09-08T01:56:44;4.70;;;4.20;;
12792;SDS011;6460;42.684;23.260;2023-09-08T01:59:11;5.77;;;4.47;;
12792;SDS011;6460;42.684;23.260;2023-09-08T02:01:40;5.03;;;4.33;;
12792;SDS011;6460;42.684;23.260;2023-09-08T02:04:08;5.17;;;4.60;;
12792;SDS011;6460;42.684;23.260;2023-09-08T02:06:35;5.83;;;4.80;;
12792;SDS011;6460;42.684;23.260;2023-09-08T02:09:02;4.90;;;4.30;;
12792;SDS011;6460;42.684;23.260;2023-09-08T02:11:30;6.00;;;5.13;;
12792;SDS011;6460;42.684;23.260;2023-09-08T02:13:57;8.43;;;4.80;;
12792;SDS011;6460;42.684;23.260;2023-09-08T02:16:25;6.27;;;5.10;;
12792;SDS011;6460;42.684;23.260;2023-09-08T02:18:55;5.50;;;5.00;;
12792;SDS011;6460;42.684;23.260;2023-09-08T02:21:22;6.67;;;5.23;;
12792;SDS011;6460;42.684;23.260;2023-09-08T02:23:49;6.57;;;4.93;;
12792;SDS011;6460;42.684;23.260;2023-09-08T02:26:17;6.13;;;5.53;;
12792;SDS011;6460;42.684;23.260;2023-09-08T02:28:44;8.60;;;5.60;;
12792;SDS011;6460;42.684;23.260;2023-09-08T02:31:11;7.30;;;5.60;;
12792;SDS011;6460;42.684;23.260;2023-09-08T02:33:39;6.87;;;5.33;;
12792;SDS011;6460;42.684;23.260;2023-09-08T02:36:07;6.70;;;5.57;;
12792;SDS011;6460;42.684;23.260;2023-09-08T02:38:35;9.40;;;5.50;;
12792;SDS011;6460;42.684;23.260;2023-09-08T02:41:02;7.33;;;6.13;;
12792;SDS011;6460;42.684;23.260;2023-09-08T02:43:30;6.30;;;5.10;;
12792;SDS011;6460;42.684;23.260;2023-09-08T02:45:57;8.40;;;5.60;;
12792;SDS011;6460;42.684;23.260;2023-09-08T02:48:25;7.70;;;6.27;;
12792;SDS011;6460;42.684;23.260;2023-09-08T02:50:52;8.50;;;5.73;;
12792;SDS011;6460;42.684;23.260;2023-09-08T02:53:22;6.27;;;5.50;;
12792;SDS011;6460;42.684;23.260;2023-09-08T02:55:54;6.37;;;5.67;;
12792;SDS011;6460;42.684;23.260;2023-09-08T02:58:21;7.67;;;6.10;;
12792;SDS011;6460;42.684;23.260;2023-09-08T03:00:49;7.27;;;6.50;;
12792;SDS011;6460;42.684;23.260;2023-09-08T03:03:17;7.47;;;6.37;;
12792;SDS011;6460;42.684;23.260;2023-09-08T03:05:44;8.47;;;6.57;;
12792;SDS011;6460;42.684;23.260;2023-09-08T03:08:12;7.63;;;5.93;;
12792;SDS011;6460;42.684;23.260;2023-09-08T03:10:41;7.17;;;6.47;;
12792;SDS011;6460;42.684;23.260;2023-09-08T03:13:09;7.33;;;6.27;;
12792;SDS011;6460;42.684;23.260;2023-09-08T03:15:36;10.47;;;6.80;;
12792;SDS011;6460;42.684;23.260;2023-09-08T03:18:04;8.33;;;6.60;;
12792;SDS011;6460;42.684;23.260;2023-09-08T03:20:32;6.57;;;5.87;;
12792;SDS011;6460;42.684;23.260;2023-09-08T03:22:59;9.50;;;6.80;;
12792;SDS011;6460;42.684;23.260;2023-09-08T03:25:27;7.87;;;6.63;;
12792;SDS011;6460;42.684;23.260;2023-09-08T03:27:55;7.20;;;6.40;;
12792;SDS011;6460;42.684;23.260;2023-09-08T03:30:23;8.70;;;6.50;;
12792;SDS011;6460;42.684;23.260;2023-09-08T03:32:50;8.37;;;6.73;;
12792;SDS011;6460;42.684;23.260;2023-09-08T03:35:18;7.60;;;6.90;;
12792;SDS011;6460;42.684;23.260;2023-09-08T03:37:45;8.90;;;6.83;;
12792;SDS011;6460;42.684;23.260;2023-09-08T03:40:12;7.47;;;6.70;;
12792;SDS011;6460;42.684;23.260;2023-09-08T03:42:40;9.00;;;6.43;;
12792;SDS011;6460;42.684;23.260;2023-09-08T03:45:09;8.40;;;6.77;;
12792;SDS011;6460;42.684;23.260;2023-09-08T03:47:37;8.73;;;6.63;;
12792;SDS011;6460;42.684;23.260;2023-09-08T03:50:05;9.47;;;7.13;;
12792;SDS011;6460;42.684;23.260;2023-09-08T03:52:33;8.07;;;6.77;;
12792;SDS011;6460;42.684;23.260;2023-09-08T03:55:00;7.93;;;6.53;;
12792;SDS011;6460;42.684;23.260;2023-09-08T03:57:27;8.73;;;6.60;;
12792;SDS011;6460;42.684;23.260;2023-09-08T03:59:55;8.87;;;6.90;;
12792;SDS011;6460;42.684;23.260;2023-09-08T04:02:24;7.63;;;6.53;;
12792;SDS011;6460;42.684;23.260;2023-09-08T04:04:51;9.50;;;7.03;;
12792;SDS011;6460;42.684;23.260;2023-09-08T04:07:19;14.07;;;8.20;;
12792;SDS011;6460;42.684;23.260;2023-09-08T04:09:46;7.90;;;6.70;;
12792;SDS011;6460;42.684;23.260;2023-09-08T04:12:13;10.20;;;7.43;;
12792;SDS011;6460;42.684;23.260;2023-09-08T04:14:41;8.20;;;7.30;;
12792;SDS011;6460;42.684;23.260;2023-09-08T04:17:08;10.80;;;8.73;;
12792;SDS011;6460;42.684;23.260;2023-09-08T04:19:37;11.47;;;9.23;;
12792;SDS011;6460;42.684;23.260;2023-09-08T04:22:04;8.27;;;6.90;;
12792;SDS011;6460;42.684;23.260;2023-09-08T04:24:34;9.13;;;6.37;;
12792;SDS011;6460;42.684;23.260;2023-09-08T04:27:02;9.37;;;6.43;;
12792;SDS011;6460;42.684;23.260;2023-09-08T04:29:30;11.63;;;6.80;;
12792;SDS011;6460;42.684;23.260;2023-09-08T04:31:59;9.47;;;7.13;;
12792;SDS011;6460;42.684;23.260;2023-09-08T04:34:26;7.37;;;6.63;;
12792;SDS011;6460;42.684;23.260;2023-09-08T04:36:55;7.67;;;6.30;;
12792;SDS011;6460;42.684;23.260;2023-09-08T04:39:22;8.70;;;7.30;;
12792;SDS011;6460;42.684;23.260;2023-09-08T04:41:50;9.83;;;6.93;;
12792;SDS011;6460;42.684;23.260;2023-09-08T04:44:17;9.07;;;7.47;;
12792;SDS011;6460;42.684;23.260;2023-09-08T04:46:44;9.20;;;7.67;;
12792;SDS011;6460;42.684;23.260;2023-09-08T04:49:12;11.63;;;7.97;;
12792;SDS011;6460;42.684;23.260;2023-09-08T04:51:39;10.77;;;8.13;;
12792;SDS011;6460;42.684;23.260;2023-09-08T04:54:08;13.00;;;8.17;;
12792;SDS011;6460;42.684;23.260;2023-09-08T04:56:36;10.63;;;7.90;;
12792;SDS011;6460;42.684;23.260;2023-09-08T04:59:05;9.70;;;7.80;;
12792;SDS011;6460;42.684;23.260;2023-09-08T05:01:32;12.10;;;8.53;;
12792;SDS011;6460;42.684;23.260;2023-09-08T05:04:02;11.50;;;8.27;;
12792;SDS011;6460;42.684;23.260;2023-09-08T05:06:30;11.00;;;7.40;;
12792;SDS011;6460;42.684;23.260;2023-09-08T05:08:58;13.17;;;8.27;;
12792;SDS011;6460;42.684;23.260;2023-09-08T05:11:27;10.80;;;8.27;;
12792;SDS011;6460;42.684;23.260;2023-09-08T05:13:55;12.50;;;8.60;;
12792;SDS011;6460;42.684;23.260;2023-09-08T05:16:23;9.47;;;8.27;;
12792;SDS011;6460;42.684;23.260;2023-09-08T05:19:02;12.13;;;7.47;;
12792;SDS011;6460;42.684;23.260;2023-09-08T05:21:30;13.60;;;8.10;;
12792;SDS011;6460;42.684;23.260;2023-09-08T05:23:58;11.40;;;8.57;;
12792;SDS011;6460;42.684;23.260;2023-09-08T05:26:25;11.33;;;8.47;;
12792;SDS011;6460;42.684;23.260;2023-09-08T05:28:54;11.77;;;8.90;;
12792;SDS011;6460;42.684;23.260;2023-09-08T05:31:21;11.23;;;8.00;;
12792;SDS011;6460;42.684;23.260;2023-09-08T05:33:49;11.93;;;7.80;;
12792;SDS011;6460;42.684;23.260;2023-09-08T05:36:16;10.80;;;8.60;;
12792;SDS011;6460;42.684;23.260;2023-09-08T05:38:43;6.83;;;5.93;;
12792;SDS011;6460;42.684;23.260;2023-09-08T05:41:11;11.40;;;6.30;;
12792;SDS011;6460;42.684;23.260;2023-09-08T05:43:38;11.30;;;6.10;;
12792;SDS011;6460;42.684;23.260;2023-09-08T05:46:07;9.63;;;5.43;;
12792;SDS011;6460;42.684;23.260;2023-09-08T05:48:35;9.63;;;5.73;;
12792;SDS011;6460;42.684;23.260;2023-09-08T05:51:02;8.23;;;5.70;;
12792;SDS011;6460;42.684;23.260;2023-09-08T05:53:31;9.43;;;6.10;;
12792;SDS011;6460;42.684;23.260;2023-09-08T05:56:00;11.10;;;6.40;;
12792;SDS011;6460;42.684;23.260;2023-09-08T05:58:28;7.80;;;6.00;;
12792;SDS011;6460;42.684;23.260;2023-09-08T06:00:55;8.07;;;5.50;;
12792;SDS011;6460;42.684;23.260;2023-09-08T06:03:24;10.50;;;5.67;;
12792;SDS011;6460;42.684;23.260;2023-09-08T06:05:52;6.57;;;5.67;;
12792;SDS011;6460;42.684;23.260;2023-09-08T06:08:19;7.73;;;4.80;;
12792;SDS011;6460;42.684;23.260;2023-09-08T06:10:46;7.27;;;4.93;;
12792;SDS011;6460;42.684;23.260;2023-09-08T06:13:14;6.07;;;4.67;;
12792;SDS011;6460;42.684;23.260;2023-09-08T06:15:41;5.93;;;4.70;;
12792;SDS011;6460;42.684;23.260;2023-09-08T06:18:09;5.07;;;4.23;;
12792;SDS011;6460;42.684;23.260;2023-09-08T06:20:44;6.53;;;4.60;;
12792;SDS011;6460;42.684;23.260;2023-09-08T06:23:12;8.50;;;4.43;;
12792;SDS011;6460;42.684;23.260;2023-09-08T06:25:40;5.47;;;4.70;;
12792;SDS011;6460;42.684;23.260;2023-09-08T06:28:07;6.07;;;4.63;;
12792;SDS011;6460;42.684;23.260;2023-09-08T06:30:34;4.90;;;4.33;;
12792;SDS011;6460;42.684;23.260;2023-09-08T06:33:02;5.40;;;4.27;;
12792;SDS011;6460;42.684;23.260;2023-09-08T06:35:30;7.57;;;4.53;;
12792;SDS011;6460;42.684;23.260;2023-09-08T06:38:00;6.27;;;4.43;;
12792;SDS011;6460;42.684;23.260;2023-09-08T06:40:29;5.23;;;4.43;;
12792;SDS011;6460;42.684;23.260;2023-09-08T06:42:56;5.80;;;4.03;;
12792;SDS011;6460;42.684;23.260;2023-09-08T06:45:24;6.53;;;3.93;;
12792;SDS011;6460;42.684;23.260;2023-09-08T06:47:51;4.60;;;3.87;;
12792;SDS011;6460;42.684;23.260;2023-09-08T06:50:20;7.47;;;4.10;;
12792;SDS011;6460;42.684;23.260;2023-09-08T06:52:47;4.90;;;3.43;;
12792;SDS011;6460;42.684;23.260;2023-09-08T06:55:16;5.40;;;3.63;;
12792;SDS011;6460;42.684;23.260;2023-09-08T06:57:44;5.00;;;3.60;;
12792;SDS011;6460;42.684;23.260;2023-09-08T07:00:13;4.73;;;3.30;;
12792;SDS011;6460;42.684;23.260;2023-09-08T07:02:42;3.90;;;3.40;;
12792;SDS011;6460;42.684;23.260;2023-09-08T07:05:10;3.67;;;3.23;;
12792;SDS011;6460;42.684;23.260;2023-09-08T07:07:37;4.63;;;3.80;;
12792;SDS011;6460;42.684;23.260;2023-09-08T07:10:05;4.90;;;3.70;;
12792;SDS011;6460;42.684;23.260;2023-09-08T07:12:35;6.93;;;3.20;;
12792;SDS011;6460;42.684;23.260;2023-09-08T07:15:03;6.93;;;3.70;;
12792;SDS011;6460;42.684;23.260;2023-09-08T07:17:31;3.43;;;2.87;;
12792;SDS011;6460;42.684;23.260;2023-09-08T07:19:58;4.07;;;3.57;;
12792;SDS011;6460;42.684;23.260;2023-09-08T07:22:26;3.60;;;3.17;;
12792;SDS011;6460;42.684;23.260;2023-09-08T07:24:53;4.90;;;3.53;;
12792;SDS011;6460;42.684;23.260;2023-09-08T07:27:21;3.93;;;3.43;;
12792;SDS011;6460;42.684;23.260;2023-09-08T07:29:50;5.10;;;3.37;;
12792;SDS011;6460;42.684;23.260;2023-09-08T07:32:17;3.70;;;3.30;;
12792;SDS011;6460;42.684;23.260;2023-09-08T07:34:45;3.47;;;2.93;;
12792;SDS011;6460;42.684;23.260;2023-09-08T07:37:17;3.67;;;3.30;;
12792;SDS011;6460;42.684;23.260;2023-09-08T07:39:45;5.40;;;3.07;;
12792;SDS011;6460;42.684;23.260;2023-09-08T07:42:13;4.27;;;3.60;;
12792;SDS011;6460;42.684;23.260;2023-09-08T07:44:40;6.83;;;3.40;;
12792;SDS011;6460;42.684;23.260;2023-09-08T07:47:09;7.50;;;3.60;;
12792;SDS011;6460;42.684;23.260;2023-09-08T07:49:36;6.20;;;3.60;;
12792;SDS011;6460;42.684;23.260;2023-09-08T07:52:04;4.17;;;3.57;;
12792;SDS011;6460;42.684;23.260;2023-09-08T07:54:32;4.07;;;3.67;;
12792;SDS011;6460;42.684;23.260;2023-09-08T07:57:00;4.90;;;3.20;;
12792;SDS011;6460;42.684;23.260;2023-09-08T07:59:27;5.43;;;3.50;;
12792;SDS011;6460;42.684;23.260;2023-09-08T08:01:54;4.07;;;3.47;;
12792;SDS011;6460;42.684;23.260;2023-09-08T08:04:23;3.67;;;3.13;;
12792;SDS011;6460;42.684;23.260;2023-09-08T08:06:51;3.60;;;3.30;;
12792;SDS011;6460;42.684;23.260;2023-09-08T08:09:18;3.50;;;3.20;;
12792;SDS011;6460;42.684;23.260;2023-09-08T08:11:46;7.13;;;3.83;;
12792;SDS011;6460;42.684;23.260;2023-09-08T08:14:14;5.77;;;3.90;;
12792;SDS011;6460;42.684;23.260;2023-09-08T08:16:41;3.50;;;3.20;;
12792;SDS011;6460;42.684;23.260;2023-09-08T08:19:09;3.83;;;3.43;;
12792;SDS011;6460;42.684;23.260;2023-09-08T08:21:38;4.37;;;3.27;;
12792;SDS011;6460;42.684;23.260;2023-09-08T08:24:07;3.87;;;3.47;;
12792;SDS011;6460;42.684;23.260;2023-09-08T08:26:35;5.57;;;3.47;;
12792;SDS011;6460;42.684;23.260;2023-09-08T08:29:03;4.30;;;3.57;;
12792;SDS011;6460;42.684;23.260;2023-09-08T08:31:30;4.97;;;3.50;;
12792;SDS011;6460;42.684;23.260;2023-09-08T08:33:58;4.00;;;3.60;;
12792;SDS011;6460;42.684;23.260;2023-09-08T08:36:25;4.60;;;3.70;;
12792;SDS011;6460;42.684;23.260;2023-09-08T08:38:54;4.60;;;3.70;;
12792;SDS011;6460;42.684;23.260;2023-09-08T08:41:22;3.50;;;3.20;;
12792;SDS011;6460;42.684;23.260;2023-09-08T08:43:50;4.60;;;3.70;;
12792;SDS011;6460;42.684;23.260;2023-09-08T08:46:18;5.23;;;3.70;;
12792;SDS011;6460;42.684;23.260;2023-09-08T08:48:47;3.40;;;3.10;;
12792;SDS011;6460;42.684;23.260;2023-09-08T08:51:19;4.03;;;3.40;;
12792;SDS011;6460;42.684;23.260;2023-09-08T08:53:50;3.73;;;2.90;;
12792;SDS011;6460;42.684;23.260;2023-09-08T08:56:19;4.37;;;3.23;;
12792;SDS011;6460;42.684;23.260;2023-09-08T08:58:47;6.43;;;3.27;;
12792;SDS011;6460;42.684;23.260;2023-09-08T09:01:15;3.83;;;3.17;;
12792;SDS011;6460;42.684;23.260;2023-09-08T09:03:44;3.47;;;3.10;;
12792;SDS011;6460;42.684;23.260;2023-09-08T09:06:13;3.47;;;3.17;;
12792;SDS011;6460;42.684;23.260;2023-09-08T09:08:41;3.40;;;3.10;;
12792;SDS011;6460;42.684;23.260;2023-09-08T09:11:10;3.53;;;3.23;;
12792;SDS011;6460;42.684;23.260;2023-09-08T09:13:39;5.63;;;3.77;;
12792;SDS011;6460;42.684;23.260;2023-09-08T09:16:06;3.77;;;3.10;;
12792;SDS011;6460;42.684;23.260;2023-09-08T09:18:41;4.73;;;3.00;;
12792;SDS011;6460;42.684;23.260;2023-09-08T09:21:20;3.33;;;3.03;;
12792;SDS011;6460;42.684;23.260;2023-09-08T09:23:48;5.57;;;3.47;;
12792;SDS011;6460;42.684;23.260;2023-09-08T09:26:25;6.03;;;3.70;;
12792;SDS011;6460;42.684;23.260;2023-09-08T09:28:55;3.57;;;3.27;;
12792;SDS011;6460;42.684;23.260;2023-09-08T09:31:24;4.73;;;3.70;;
12792;SDS011;6460;42.684;23.260;2023-09-08T09:34:02;3.27;;;3.00;;
12792;SDS011;6460;42.684;23.260;2023-09-08T09:36:30;8.83;;;3.30;;
12792;SDS011;6460;42.684;23.260;2023-09-08T09:38:58;4.40;;;3.47;;
12792;SDS011;6460;42.684;23.260;2023-09-08T09:41:27;4.03;;;3.53;;
12792;SDS011;6460;42.684;23.260;2023-09-08T09:43:57;4.17;;;3.60;;
12792;SDS011;6460;42.684;23.260;2023-09-08T09:46:27;5.70;;;3.37;;
12792;SDS011;6460;42.684;23.260;2023-09-08T09:48:55;3.77;;;3.27;;
12792;SDS011;6460;42.684;23.260;2023-09-08T09:51:22;5.40;;;3.17;;
12792;SDS011;6460;42.684;23.260;2023-09-08T09:53:50;6.00;;;3.87;;
12792;SDS011;6460;42.684;23.260;2023-09-08T09:56:17;3.40;;;3.10;;
12792;SDS011;6460;42.684;23.260;2023-09-08T09:58:44;3.50;;;3.20;;
12792;SDS011;6460;42.684;23.260;2023-09-08T10:01:15;4.87;;;3.50;;
12792;SDS011;6460;42.684;23.260;2023-09-08T10:03:43;3.70;;;3.40;;
12792;SDS011;6460;42.684;23.260;2023-09-08T10:06:11;4.93;;;3.97;;
12792;SDS011;6460;42.684;23.260;2023-09-08T10:08:41;4.50;;;3.47;;
12792;SDS011;6460;42.684;23.260;2023-09-08T10:11:09;5.27;;;3.30;;
12792;SDS011;6460;42.684;23.260;2023-09-08T10:13:44;4.63;;;3.87;;
12792;SDS011;6460;42.684;23.260;2023-09-08T10:16:15;5.10;;;3.50;;
12792;SDS011;6460;42.684;23.260;2023-09-08T10:18:46;3.77;;;3.40;;
12792;SDS011;6460;42.684;23.260;2023-09-08T10:21:15;4.57;;;3.37;;
12792;SDS011;6460;42.684;23.260;2023-09-08T10:23:47;3.90;;;3.60;;
12792;SDS011;6460;42.684;23.260;2023-09-08T10:26:20;4.40;;;3.27;;
12792;SDS011;6460;42.684;23.260;2023-09-08T10:28:53;4.10;;;3.80;;
12792;SDS011;6460;42.684;23.260;2023-09-08T10:31:24;3.93;;;3.50;;
12792;SDS011;6460;42.684;23.260;2023-09-08T10:33:53;4.23;;;3.73;;
12792;SDS011;6460;42.684;23.260;2023-09-08T10:36:21;4.17;;;3.77;;
12792;SDS011;6460;42.684;23.260;2023-09-08T10:38:49;4.10;;;3.67;;
12792;SDS011;6460;42.684;23.260;2023-09-08T10:41:26;4.30;;;3.57;;
12792;SDS011;6460;42.684;23.260;2023-09-08T10:43:58;4.77;;;3.87;;
12792;SDS011;6460;42.684;23.260;2023-09-08T10:46:31;4.00;;;3.23;;
12792;SDS011;6460;42.684;23.260;2023-09-08T10:49:03;3.73;;;3.43;;
12792;SDS011;6460;42.684;23.260;2023-09-08T10:51:32;4.17;;;3.30;;
12792;SDS011;6460;42.684;23.260;2023-09-08T10:54:00;3.93;;;3.50;;
12792;SDS011;6460;42.684;23.260;2023-09-08T10:56:28;3.70;;;3.20;;
12792;SDS011;6460;42.684;23.260;2023-09-08T10:59:14;4.07;;;3.67;;
12792;SDS011;6460;42.684;23.260;2023-09-08T11:01:43;4.13;;;3.70;;
12792;SDS011;6460;42.684;23.260;2023-09-08T11:04:11;3.87;;;3.27;;
12792;SDS011;6460;42.684;23.260;2023-09-08T11:06:44;4.83;;;3.50;;
12792;SDS011;6460;42.684;23.260;2023-09-08T11:09:11;4.23;;;3.33;;
12792;SDS011;6460;42.684;23.260;2023-09-08T11:11:38;5.57;;;3.40;;
12792;SDS011;6460;42.684;23.260;2023-09-08T11:14:05;5.47;;;3.40;;
12792;SDS011;6460;42.684;23.260;2023-09-08T11:16:32;5.13;;;3.33;;
12792;SDS011;6460;42.684;23.260;2023-09-08T11:19:02;5.00;;;3.87;;
12792;SDS011;6460;42.684;23.260;2023-09-08T11:21:29;5.30;;;3.57;;
12792;SDS011;6460;42.684;23.260;2023-09-08T11:24:00;4.10;;;3.60;;
12792;SDS011;6460;42.684;23.260;2023-09-08T11:26:32;9.23;;;3.97;;
12792;SDS011;6460;42.684;23.260;2023-09-08T11:28:59;6.03;;;4.03;;
12792;SDS011;6460;42.684;23.260;2023-09-08T11:31:27;4.47;;;3.67;;
12792;SDS011;6460;42.684;23.260;2023-09-08T11:33:54;4.57;;;3.30;;
12792;SDS011;6460;42.684;23.260;2023-09-08T11:36:23;4.67;;;3.70;;
12792;SDS011;6460;42.684;23.260;2023-09-08T11:38:50;4.33;;;3.77;;
12792;SDS011;6460;42.684;23.260;2023-09-08T11:41:19;6.10;;;3.93;;
12792;SDS011;6460;42.684;23.260;2023-09-08T11:43:49;4.73;;;3.60;;
12792;SDS011;6460;42.684;23.260;2023-09-08T11:46:16;4.07;;;3.60;;
12792;SDS011;6460;42.684;23.260;2023-09-08T11:48:44;4.53;;;3.77;;
12792;SDS011;6460;42.684;23.260;2023-09-08T11:51:13;5.77;;;3.73;;
12792;SDS011;6460;42.684;23.260;2023-09-08T11:53:41;6.83;;;4.13;;
12792;SDS011;6460;42.684;23.260;2023-09-08T11:56:10;5.97;;;3.67;;
12792;SDS011;6460;42.684;23.260;2023-09-08T11:58:37;4.03;;;3.73;;
12792;SDS011;6460;42.684;23.260;2023-09-08T12:01:05;4.03;;;3.63;;
12792;SDS011;6460;42.684;23.260;2023-09-08T12:03:32;5.13;;;3.50;;
12792;SDS011;6460;42.684;23.260;2023-09-08T12:05:59;4.37;;;3.67;;
12792;SDS011;6460;42.684;23.260;2023-09-08T12:08:27;6.67;;;4.20;;
12792;SDS011;6460;42.684;23.260;2023-09-08T12:10:56;5.37;;;3.93;;
12792;SDS011;6460;42.684;23.260;2023-09-08T12:13:23;5.67;;;3.80;;
12792;SDS011;6460;42.684;23.260;2023-09-08T12:15:50;4.67;;;4.23;;
12792;SDS011;6460;42.684;23.260;2023-09-08T12:18:18;4.47;;;4.00;;
12792;SDS011;6460;42.684;23.260;2023-09-08T12:20:45;3.60;;;3.30;;
12792;SDS011;6460;42.684;23.260;2023-09-08T12:23:16;4.83;;;4.00;;
12792;SDS011;6460;42.684;23.260;2023-09-08T12:25:44;4.17;;;3.77;;
12792;SDS011;6460;42.684;23.260;2023-09-08T12:28:13;4.63;;;4.03;;
12792;SDS011;6460;42.684;23.260;2023-09-08T12:30:40;7.30;;;3.97;;
12792;SDS011;6460;42.684;23.260;2023-09-08T12:33:08;5.93;;;3.80;;
12792;SDS011;6460;42.684;23.260;2023-09-08T12:35:36;4.03;;;3.63;;
12792;SDS011;6460;42.684;23.260;2023-09-08T12:38:04;4.77;;;3.77;;
12792;SDS011;6460;42.684;23.260;2023-09-08T12:40:33;4.93;;;3.77;;
12792;SDS011;6460;42.684;23.260;2023-09-08T12:43:01;5.10;;;4.60;;
12792;SDS011;6460;42.684;23.260;2023-09-08T12:45:31;4.40;;;4.00;;
12792;SDS011;6460;42.684;23.260;2023-09-08T12:47:58;5.03;;;3.43;;
12792;SDS011;6460;42.684;23.260;2023-09-08T12:50:26;4.20;;;3.80;;
12792;SDS011;6460;42.684;23.260;2023-09-08T12:52:54;4.23;;;3.80;;
12792;SDS011;6460;42.684;23.260;2023-09-08T12:55:22;4.40;;;4.00;;
12792;SDS011;6460;42.684;23.260;2023-09-08T12:57:49;5.17;;;3.73;;
12792;SDS011;6460;42.684;23.260;2023-09-08T13:00:19;5.50;;;4.13;;
12792;SDS011;6460;42.684;23.260;2023-09-08T13:02:49;4.13;;;3.73;;
12792;SDS011;6460;42.684;23.260;2023-09-08T13:05:16;4.37;;;3.97;;
12792;SDS011;6460;42.684;23.260;2023-09-08T13:07:44;4.13;;;3.73;;
12792;SDS011;6460;42.684;23.260;2023-09-08T13:10:11;4.57;;;3.67;;
12792;SDS011;6460;42.684;23.260;2023-09-08T13:12:38;4.07;;;3.70;;
12792;SDS011;6460;42.684;23.260;2023-09-08T13:15:06;4.97;;;4.30;;
12792;SDS011;6460;42.684;23.260;2023-09-08T13:17:33;8.57;;;4.40;;
12792;SDS011;6460;42.684;23.260;2023-09-08T13:20:02;4.63;;;3.90;;
12792;SDS011;6460;42.684;23.260;2023-09-08T13:22:30;8.03;;;4.10;;
12792;SDS011;6460;42.684;23.260;2023-09-08T13:24:57;7.03;;;4.43;;
12792;SDS011;6460;42.684;23.260;2023-09-08T13:27:24;4.87;;;4.47;;
12792;SDS011;6460;42.684;23.260;2023-09-08T13:29:53;4.50;;;4.00;;
12792;SDS011;6460;42.684;23.260;2023-09-08T13:32:20;4.63;;;4.00;;
12792;SDS011;6460;42.684;23.260;2023-09-08T13:34:50;5.03;;;3.67;;
12792;SDS011;6460;42.684;23.260;2023-09-08T13:37:18;5.43;;;3.90;;
12792;SDS011;6460;42.684;23.260;2023-09-08T13:39:45;5.20;;;4.00;;
12792;SDS011;6460;42.684;23.260;2023-09-08T13:42:12;4.70;;;4.20;;
12792;SDS011;6460;42.684;23.260;2023-09-08T13:44:39;6.13;;;3.80;;
12792;SDS011;6460;42.684;23.260;2023-09-08T13:47:07;4.73;;;4.10;;
12792;SDS011;6460;42.684;23.260;2023-09-08T13:49:34;5.83;;;4.30;;
12792;SDS011;6460;42.684;23.260;2023-09-08T13:52:01;4.20;;;3.80;;
12792;SDS011;6460;42.684;23.260;2023-09-08T13:54:29;5.83;;;3.73;;
12792;SDS011;6460;42.684;23.260;2023-09-08T13:56:58;4.97;;;3.70;;
12792;SDS011;6460;42.684;23.260;2023-09-08T13:59:26;3.80;;;3.40;;
12792;SDS011;6460;42.684;23.260;2023-09-08T14:01:55;4.30;;;3.90;;
12792;SDS011;6460;42.684;23.260;2023-09-08T14:04:22;6.10;;;4.03;;
12792;SDS011;6460;42.684;23.260;2023-09-08T14:06:50;5.37;;;4.17;;
12792;SDS011;6460;42.684;23.260;2023-09-08T14:09:17;4.37;;;3.83;;
12792;SDS011;6460;42.684;23.260;2023-09-08T14:11:46;4.17;;;3.77;;
12792;SDS011;6460;42.684;23.260;2023-09-08T14:14:13;4.00;;;3.70;;
12792;SDS011;6460;42.684;23.260;2023-09-08T14:16:40;5.33;;;4.07;;
12792;SDS011;6460;42.684;23.260;2023-09-08T14:19:07;4.10;;;3.70;;
12792;SDS011;6460;42.684;23.260;2023-09-08T14:21:34;4.37;;;3.57;;
12792;SDS011;6460;42.684;23.260;2023-09-08T14:24:05;5.67;;;3.67;;
12792;SDS011;6460;42.684;23.260;2023-09-08T14:26:32;5.87;;;4.30;;
12792;SDS011;6460;42.684;23.260;2023-09-08T14:29:01;4.53;;;4.13;;
12792;SDS011;6460;42.684;23.260;2023-09-08T14:31:29;6.40;;;4.10;;
12792;SDS011;6460;42.684;23.260;2023-09-08T14:33:56;5.30;;;4.13;;
12792;SDS011;6460;42.684;23.260;2023-09-08T14:36:23;5.03;;;3.70;;
12792;SDS011;6460;42.684;23.260;2023-09-08T14:38:52;4.07;;;3.67;;
12792;SDS011;6460;42.684;23.260;2023-09-08T14:41:21;5.83;;;4.07;;
12792;SDS011;6460;42.684;23.260;2023-09-08T14:43:48;5.90;;;4.10;;
12792;SDS011;6460;42.684;23.260;2023-09-08T14:46:17;4.57;;;4.07;;
12792;SDS011;6460;42.684;23.260;2023-09-08T14:48:44;4.10;;;3.77;;
12792;SDS011;6460;42.684;23.260;2023-09-08T14:51:11;4.30;;;3.90;;
12792;SDS011;6460;42.684;23.260;2023-09-08T14:53:38;4.40;;;3.93;;